createdAt,value
2019-06-20T00:00:09.512Z,95028.38
2019-06-20T00:02:45.027Z,95025.62
2019-06-20T00:05:14.123Z,95025.47
2019-06-20T00:07:50.171Z,95027.89
2019-06-20T00:10:25.560Z,95026.86
2019-06-20T00:13:00.465Z,95019.61
2019-06-20T00:15:32.390Z,95015.77
2019-06-20T00:18:01.511Z,95020.59
2019-06-20T00:20:36.999Z,95022.91
2019-06-20T00:23:06.195Z,95033.19
2019-06-20T00:25:42.518Z,95032.75
2019-06-20T00:28:11.663Z,95032.95
2019-06-20T00:30:47.521Z,95037.97
2019-06-20T00:33:23.613Z,95037.81
2019-06-20T00:36:05.968Z,95032.16
2019-06-20T00:38:42.022Z,95030.16
2019-06-20T00:41:17.677Z,95031.77
2019-06-20T00:43:53.205Z,95031.19
2019-06-20T00:46:29.149Z,95037.50
2019-06-20T00:49:04.477Z,95037.99
2019-06-20T00:51:33.913Z,95039.95
2019-06-20T00:54:09.761Z,95047.86
2019-06-20T00:56:46.191Z,95049.73
2019-06-20T00:59:15.307Z,95050.75
2019-06-20T01:01:51.186Z,95059.50
2019-06-20T01:04:20.672Z,95054.48
2019-06-20T01:06:56.232Z,95058.26
2019-06-20T01:09:25.313Z,95066.88
2019-06-20T01:12:01.208Z,95066.73
2019-06-20T01:14:30.285Z,95083.14
2019-06-20T01:17:05.993Z,95077.89
2019-06-20T01:19:34.178Z,95078.78
2019-06-20T01:22:09.676Z,95075.80
2019-06-20T01:24:38.779Z,95081.77
2019-06-20T01:27:14.470Z,95077.53
2019-06-20T01:29:42.664Z,95085.00
2019-06-20T01:32:18.037Z,95083.05
2019-06-20T01:34:54.132Z,95082.33
2019-06-20T01:37:30.139Z,95084.16
2019-06-20T01:40:06.471Z,95084.73
2019-06-20T01:42:42.162Z,95087.17
2019-06-20T01:45:17.576Z,95088.08
2019-06-20T01:47:46.636Z,95093.50
2019-06-20T01:50:22.688Z,95099.23
2019-06-20T01:52:51.819Z,95106.12
2019-06-20T01:55:28.297Z,95105.73
2019-06-20T01:57:57.357Z,95102.34
2019-06-20T02:00:54.242Z,95106.21
2019-06-20T02:03:23.525Z,95107.70
2019-06-20T02:05:52.634Z,95115.37
2019-06-20T02:08:28.622Z,95113.95
2019-06-20T02:10:57.700Z,95123.73
2019-06-20T02:13:33.525Z,95121.27
2019-06-20T02:16:01.668Z,95125.54
2019-06-20T02:18:37.379Z,95127.97
2019-06-20T02:21:05.727Z,95128.56
2019-06-20T02:23:41.489Z,95123.50
2019-06-20T02:26:09.628Z,95133.34
2019-06-20T02:28:45.610Z,95131.16
2019-06-20T02:31:14.719Z,95130.25
2019-06-20T02:33:50.667Z,95123.15
2019-06-20T02:36:33.388Z,95127.27
2019-06-20T02:39:02.537Z,95137.80
2019-06-20T02:41:38.682Z,95140.31
2019-06-20T02:44:29.830Z,95138.46
2019-06-20T02:46:52.357Z,95141.19
2019-06-20T02:49:21.546Z,95140.39
2019-06-20T02:51:58.838Z,95132.59
2019-06-20T02:54:27.930Z,95128.25
2019-06-20T02:57:03.733Z,95122.63
2019-06-20T02:59:38.659Z,95124.23
2019-06-20T03:02:14.563Z,95134.95
2019-06-20T03:04:46.101Z,95140.42
2019-06-20T03:07:14.532Z,95143.59
2019-06-20T03:09:50.521Z,95136.84
2019-06-20T03:12:26.318Z,95133.96
2019-06-20T03:15:01.442Z,95123.32
2019-06-20T03:17:30.539Z,95129.61
2019-06-20T03:20:06.848Z,95113.52
2019-06-20T03:22:36.100Z,95108.27
2019-06-20T03:25:12.425Z,95107.84
2019-06-20T03:27:41.513Z,95106.94
2019-06-20T03:30:11.343Z,95097.03
2019-06-20T03:32:47.799Z,95103.21
2019-06-20T03:35:23.811Z,95108.48
2019-06-20T03:37:59.586Z,95107.91
2019-06-20T03:40:34.000Z,95117.88
2019-06-20T03:43:16.787Z,95115.13
2019-06-20T03:45:45.914Z,95124.05
2019-06-20T03:48:21.616Z,95127.50
2019-06-20T03:50:50.072Z,95130.69
2019-06-20T03:53:25.255Z,95138.45
2019-06-20T03:55:54.418Z,95141.95
2019-06-20T03:58:29.820Z,95141.55
2019-06-20T04:00:58.980Z,95141.39
2019-06-20T04:03:34.846Z,95154.59
2019-06-20T04:06:04.375Z,95152.16
2019-06-20T04:08:40.308Z,95154.52
2019-06-20T04:11:09.846Z,95157.34
2019-06-20T04:13:45.390Z,95152.30
2019-06-20T04:16:21.604Z,95151.59
2019-06-20T04:18:50.714Z,95152.53
2019-06-20T04:21:26.966Z,95148.69
2019-06-20T04:24:02.168Z,95149.03
2019-06-20T04:26:37.445Z,95149.98
2019-06-20T04:29:06.556Z,95157.58
2019-06-20T04:31:42.186Z,95146.73
2019-06-20T04:34:18.278Z,95145.84
2019-06-20T04:36:54.189Z,95152.93
2019-06-20T04:39:29.901Z,95164.14
2019-06-20T04:41:58.041Z,95169.25
2019-06-20T04:44:40.336Z,95174.84
2019-06-20T04:47:11.187Z,95175.27
2019-06-20T04:49:40.280Z,95178.58
2019-06-20T04:52:16.582Z,95186.91
2019-06-20T04:54:51.979Z,95188.84
2019-06-20T04:57:21.075Z,95192.16
2019-06-20T04:59:59.249Z,95195.33
2019-06-20T05:02:34.170Z,95198.41
2019-06-20T05:05:11.725Z,95201.48
2019-06-20T05:07:40.879Z,95201.37
2019-06-20T05:10:10.029Z,95200.58
2019-06-20T05:12:45.794Z,95199.20
2019-06-20T05:15:13.908Z,95198.87
2019-06-20T05:17:49.892Z,95196.12
2019-06-20T05:20:19.017Z,95194.43
2019-06-20T05:22:55.291Z,95194.04
2019-06-20T05:25:24.409Z,95192.37
2019-06-20T05:28:00.305Z,95194.02
2019-06-20T05:30:36.607Z,95190.38
2019-06-20T05:33:12.747Z,95190.31
2019-06-20T05:35:49.312Z,95191.22
2019-06-20T05:38:18.468Z,95199.63
2019-06-20T05:40:54.309Z,95198.95
2019-06-20T05:43:23.675Z,95201.38
2019-06-20T05:46:10.817Z,95203.82
2019-06-20T05:48:44.407Z,95203.48
2019-06-20T05:51:13.577Z,95202.69
2019-06-20T05:53:49.474Z,95211.08
2019-06-20T05:56:26.117Z,95215.23
2019-06-20T05:58:55.297Z,95219.59
2019-06-20T06:01:31.056Z,95221.91
2019-06-20T06:03:59.194Z,95229.45
2019-06-20T06:06:35.241Z,95233.11
2019-06-20T06:09:05.568Z,95233.34
2019-06-20T06:11:41.509Z,95235.96
2019-06-20T06:14:10.638Z,95231.49
2019-06-20T06:16:43.874Z,95228.81
2019-06-20T06:19:16.929Z,95234.42
2019-06-20T06:21:52.379Z,95234.20
2019-06-20T06:24:27.827Z,95233.17
2019-06-20T06:27:03.294Z,95229.73
2019-06-20T06:29:39.225Z,95240.85
2019-06-20T06:32:15.535Z,95240.39
2019-06-20T06:34:44.811Z,95237.72
2019-06-20T06:37:27.886Z,95233.70
2019-06-20T06:39:57.014Z,95234.83
2019-06-20T06:42:39.407Z,95238.61
2019-06-20T06:45:09.093Z,95242.02
2019-06-20T06:47:44.628Z,95243.59
2019-06-20T06:50:13.920Z,95247.33
2019-06-20T06:52:51.515Z,95247.20
2019-06-20T06:55:20.746Z,95253.57
2019-06-20T06:57:49.872Z,95252.05
2019-06-20T07:00:25.549Z,95249.60
2019-06-20T07:02:59.897Z,95249.94
2019-06-20T07:05:35.959Z,95247.28
2019-06-20T07:08:12.207Z,95247.47
2019-06-20T07:10:48.164Z,95242.86
2019-06-20T07:13:17.295Z,95247.22
2019-06-20T07:15:46.435Z,95244.89
2019-06-20T07:18:21.931Z,95243.95
2019-06-20T07:20:51.112Z,95257.02
2019-06-20T07:23:26.400Z,95254.20
2019-06-20T07:25:55.528Z,95259.95
2019-06-20T07:28:31.188Z,95259.72
2019-06-20T07:30:59.363Z,95264.59
2019-06-20T07:33:34.734Z,95273.63
2019-06-20T07:36:10.739Z,95270.72
2019-06-20T07:38:53.202Z,95265.05
2019-06-20T07:41:29.284Z,95257.16
2019-06-20T07:44:04.484Z,95261.45
2019-06-20T07:46:40.427Z,95261.20
2019-06-20T07:49:16.462Z,95255.72
2019-06-20T07:51:45.588Z,95254.73
2019-06-20T07:54:21.240Z,95246.22
2019-06-20T07:56:49.481Z,95247.20
2019-06-20T07:59:24.999Z,95240.58
2019-06-20T08:01:54.148Z,95234.84
2019-06-20T08:04:29.503Z,95233.96
2019-06-20T08:06:59.101Z,95237.59
2019-06-20T08:09:44.925Z,95235.34
2019-06-20T08:12:06.234Z,95232.00
2019-06-20T08:14:42.517Z,95227.13
2019-06-20T08:17:11.613Z,95232.42
2019-06-20T08:19:47.308Z,95226.62
2019-06-20T08:22:15.492Z,95231.55
2019-06-20T08:24:53.236Z,95235.94
2019-06-20T08:27:46.715Z,95232.38
2019-06-20T08:30:23.063Z,95226.08
2019-06-20T08:32:52.719Z,95219.79
2019-06-20T08:35:31.121Z,95221.59
2019-06-20T08:38:07.537Z,95220.64
2019-06-20T08:40:50.320Z,95226.60
2019-06-20T08:43:19.597Z,95230.02
2019-06-20T08:46:04.073Z,95223.86
2019-06-20T08:48:39.867Z,95227.41
2019-06-20T08:51:08.968Z,95227.54
2019-06-20T08:53:45.190Z,95232.49
2019-06-20T08:56:14.421Z,95224.08
2019-06-20T08:58:50.425Z,95219.98
2019-06-20T09:01:19.540Z,95225.73
2019-06-20T09:09:07.432Z,95223.92
2019-06-20T09:11:36.589Z,95222.11
2019-06-20T09:14:13.163Z,95219.02
2019-06-20T09:16:42.329Z,95221.05
2019-06-20T09:19:18.677Z,95220.48
2019-06-20T09:21:47.841Z,95219.38
2019-06-20T09:24:24.233Z,95218.19
2019-06-20T09:27:00.329Z,95212.80
2019-06-20T09:29:41.448Z,95209.73
2019-06-20T09:32:00.455Z,95208.41
2019-06-20T09:34:36.096Z,95213.20
2019-06-20T09:37:04.251Z,95208.63
2019-06-20T09:39:39.850Z,95225.19
2019-06-20T09:42:14.849Z,95229.23
2019-06-20T09:44:58.471Z,95223.97
2019-06-20T09:47:27.706Z,95226.29
2019-06-20T09:50:09.969Z,95220.72
2019-06-20T09:52:39.081Z,95215.53
2019-06-20T09:55:08.718Z,95214.16
2019-06-20T09:57:44.719Z,95213.95
2019-06-20T10:00:14.985Z,95219.18
2019-06-20T10:02:52.447Z,95219.95
2019-06-20T10:05:29.126Z,95223.55
2019-06-20T10:08:11.050Z,95219.47
2019-06-20T10:10:54.140Z,95227.23
2019-06-20T10:13:32.774Z,95218.09
2019-06-20T10:16:01.507Z,95222.97
2019-06-20T10:18:37.786Z,95224.77
2019-06-20T10:21:06.994Z,95227.52
2019-06-20T10:23:42.736Z,95227.47
2019-06-20T10:26:11.836Z,95217.58
2019-06-20T10:28:49.119Z,95224.02
2019-06-20T10:31:18.326Z,95229.02
2019-06-20T10:33:54.022Z,95226.53
2019-06-20T10:36:23.149Z,95226.91
2019-06-20T10:38:59.153Z,95224.35
2019-06-20T10:41:28.339Z,95222.37
2019-06-20T10:44:11.113Z,95224.58
2019-06-20T10:46:40.235Z,95227.05
2019-06-20T10:49:16.658Z,95228.76
2019-06-20T10:51:52.763Z,95228.58
2019-06-20T10:54:21.860Z,95234.25
2019-06-20T10:56:57.942Z,95229.03
2019-06-20T10:59:27.579Z,95225.55
2019-06-20T11:02:07.183Z,95224.06
2019-06-20T11:04:34.915Z,95220.05
2019-06-20T11:07:10.731Z,95215.69
2019-06-20T11:09:47.146Z,95218.12
2019-06-20T11:12:22.512Z,95222.52
2019-06-20T11:14:58.115Z,95216.61
2019-06-20T11:17:27.207Z,95215.75
2019-06-20T11:20:03.122Z,95203.67
2019-06-20T11:22:32.285Z,95206.17
2019-06-20T11:25:07.820Z,95202.77
2019-06-20T11:27:44.769Z,95197.44
2019-06-20T11:30:22.790Z,95193.80
2019-06-20T11:32:51.889Z,95188.67
2019-06-20T11:35:27.774Z,95181.47
2019-06-20T11:37:56.882Z,95173.12
2019-06-20T11:40:33.180Z,95166.50
2019-06-20T11:43:02.284Z,95164.36
2019-06-20T11:45:45.510Z,95165.25
2019-06-20T11:48:21.482Z,95165.69
2019-06-20T11:50:57.145Z,95163.23
2019-06-20T11:53:26.254Z,95163.33
2019-06-20T11:56:01.886Z,95157.39
2019-06-20T11:58:29.971Z,95153.23
2019-06-20T12:01:05.247Z,95143.25
2019-06-20T12:03:42.454Z,95138.98
2019-06-20T12:06:18.152Z,95131.95
2019-06-20T12:08:53.603Z,95127.70
2019-06-20T12:11:39.060Z,95116.20
2019-06-20T12:14:07.832Z,95114.98
2019-06-20T12:16:44.372Z,95105.47
2019-06-20T12:19:13.572Z,95117.96
2019-06-20T12:21:49.338Z,95115.64
2019-06-20T12:24:18.459Z,95102.39
2019-06-20T12:26:48.663Z,95107.34
2019-06-20T12:29:24.544Z,95109.94
2019-06-20T12:31:54.044Z,95113.38
2019-06-20T12:34:29.879Z,95105.66
2019-06-20T12:37:05.348Z,95104.63
2019-06-20T12:39:42.295Z,95098.70
2019-06-20T12:42:11.435Z,95096.13
2019-06-20T12:44:53.636Z,95091.16
2019-06-20T12:47:22.750Z,95090.73
2019-06-20T12:49:51.893Z,95094.82
2019-06-20T12:52:27.580Z,95101.66
2019-06-20T12:54:56.843Z,95096.12
2019-06-20T12:57:32.824Z,95103.19
2019-06-20T13:00:01.971Z,95113.20
2019-06-20T13:02:39.852Z,95123.55
2019-06-20T13:05:09.649Z,95118.97
2019-06-20T13:07:46.472Z,95127.42
2019-06-20T13:10:29.327Z,95124.08
2019-06-20T13:13:04.927Z,95117.33
2019-06-20T13:15:40.647Z,95110.91
2019-06-20T13:18:09.878Z,95107.87
2019-06-20T13:20:40.528Z,95100.60
2019-06-20T13:23:16.244Z,95092.65
2019-06-20T13:25:52.232Z,95100.61
2019-06-20T13:28:21.368Z,95095.73
2019-06-20T13:30:57.900Z,95096.27
2019-06-20T13:33:27.022Z,95082.22
2019-06-20T13:35:56.109Z,95070.34
2019-06-20T13:38:32.421Z,95066.75
2019-06-20T13:41:01.559Z,95059.09
2019-06-20T13:43:37.003Z,95078.42
2019-06-20T13:46:06.224Z,95106.77
2019-06-20T13:48:48.013Z,95112.46
2019-06-20T13:51:17.153Z,95103.27
2019-06-20T13:53:46.361Z,95108.05
2019-06-20T13:56:22.261Z,95127.58
2019-06-20T13:58:57.762Z,95133.69
2019-06-20T14:01:26.031Z,95129.20
2019-06-20T14:04:02.280Z,95145.00
2019-06-20T14:06:31.390Z,95156.22
2019-06-20T14:09:07.357Z,95165.84
2019-06-20T14:11:43.340Z,95178.19
2019-06-20T14:14:12.706Z,95198.80
2019-06-20T14:16:48.564Z,95239.76
2019-06-20T14:19:24.594Z,95245.23
2019-06-20T14:21:54.335Z,95251.44
2019-06-20T14:24:30.817Z,95277.53
2019-06-20T14:26:59.914Z,95306.45
2019-06-20T14:29:35.573Z,95319.48
2019-06-20T14:32:21.838Z,95319.42
2019-06-20T14:34:43.807Z,95313.34
2019-06-20T14:37:26.645Z,95330.66
2019-06-20T14:39:57.105Z,95327.17
2019-06-20T14:42:33.142Z,95329.56
2019-06-20T14:45:15.535Z,95319.97
2019-06-20T14:47:44.699Z,95312.34
2019-06-20T14:50:21.365Z,95308.84
2019-06-20T14:52:52.202Z,95302.03
2019-06-20T14:55:28.417Z,95299.55
2019-06-20T14:58:04.559Z,95298.91
2019-06-20T15:00:33.616Z,95298.23
2019-06-20T15:03:02.754Z,95288.17
2019-06-20T15:05:38.877Z,95281.61
2019-06-20T15:08:08.000Z,95277.48
2019-06-20T15:10:43.593Z,95266.61
2019-06-20T15:13:19.429Z,95266.05
2019-06-20T15:15:53.904Z,95257.11
2019-06-20T15:18:23.074Z,95254.05
2019-06-20T15:20:59.512Z,95244.70
2019-06-20T15:23:28.792Z,95237.84
2019-06-20T15:26:04.825Z,95241.05
2019-06-20T15:28:40.462Z,95234.92
2019-06-20T15:31:16.644Z,95228.00
2019-06-20T15:33:46.173Z,95220.75
2019-06-20T15:36:23.656Z,95250.17
2019-06-20T15:38:53.093Z,95257.16
2019-06-20T15:41:22.313Z,95242.66
2019-06-20T15:43:58.172Z,95241.11
2019-06-20T15:46:40.006Z,95252.31
2019-06-20T15:49:16.056Z,95269.47
2019-06-20T15:51:40.068Z,95282.12
2019-06-20T15:54:16.104Z,95275.27
2019-06-20T15:56:52.344Z,95280.78
2019-06-20T15:59:21.510Z,95267.42
2019-06-20T16:01:57.581Z,95266.92
2019-06-20T16:04:33.838Z,95273.20
2019-06-20T16:07:02.980Z,95270.65
2019-06-20T16:09:32.249Z,95280.84
2019-06-20T16:12:07.489Z,95281.81
2019-06-20T16:14:36.793Z,95284.46
2019-06-20T16:17:12.630Z,95289.03
2019-06-20T16:19:40.916Z,95290.70
2019-06-20T16:22:16.369Z,95294.09
2019-06-20T16:24:45.634Z,95299.14
2019-06-20T16:27:21.343Z,95294.75
2019-06-20T16:30:02.002Z,95297.77
2019-06-20T16:32:31.247Z,95300.75
2019-06-20T16:35:06.902Z,95295.47
2019-06-20T16:37:43.255Z,95298.77
2019-06-20T16:40:20.437Z,95299.45
2019-06-20T16:42:56.572Z,95303.84
2019-06-20T16:45:25.738Z,95306.81
2019-06-20T16:47:54.914Z,95307.63
2019-06-20T16:50:31.035Z,95313.34
2019-06-20T16:53:06.635Z,95320.23
2019-06-20T16:55:36.075Z,95326.96
2019-06-20T16:58:12.678Z,95330.84
2019-06-20T17:00:48.017Z,95335.30
2019-06-20T17:03:38.047Z,95341.68
2019-06-20T17:06:01.241Z,95354.52
2019-06-20T17:08:36.998Z,95357.16
2019-06-20T17:11:12.200Z,95360.55
2019-06-20T17:13:47.760Z,95360.16
2019-06-20T17:16:24.355Z,95368.22
2019-06-20T17:18:53.452Z,95374.71
2019-06-20T17:21:29.753Z,95365.53
2019-06-20T17:23:58.915Z,95370.50
2019-06-20T17:26:34.859Z,95381.66
2019-06-20T17:29:03.969Z,95385.78
2019-06-20T17:31:40.240Z,95384.19
2019-06-20T17:34:09.712Z,95385.84
2019-06-20T17:36:46.017Z,95378.32
2019-06-20T17:39:21.432Z,95375.61
2019-06-20T17:41:57.490Z,95370.08
2019-06-20T17:44:33.003Z,95379.64
2019-06-20T17:47:09.075Z,95390.86
2019-06-20T17:49:38.314Z,95388.72
2019-06-20T17:52:14.343Z,95389.87
2019-06-20T17:54:56.500Z,95391.48
2019-06-20T17:57:25.823Z,95391.66
2019-06-20T18:00:03.003Z,95389.81
2019-06-20T18:02:32.284Z,95384.55
2019-06-20T18:05:08.735Z,95376.97
2019-06-20T18:07:44.950Z,95381.48
2019-06-20T18:10:14.948Z,95370.79
2019-06-20T18:12:57.304Z,95371.23
2019-06-20T18:15:33.922Z,95366.55
2019-06-20T18:18:09.470Z,95370.55
2019-06-20T18:20:38.653Z,95370.91
2019-06-20T18:23:07.778Z,95362.67
2019-06-20T18:25:44.240Z,95363.34
2019-06-20T18:28:19.880Z,95355.34
2019-06-20T18:30:50.024Z,95345.36
2019-06-20T18:33:33.142Z,95345.36
2019-06-20T18:36:02.247Z,95342.89
2019-06-20T18:38:38.340Z,95347.90
2019-06-20T18:41:14.180Z,95341.37
2019-06-20T18:43:50.132Z,95343.07
2019-06-20T18:46:19.287Z,95342.12
2019-06-20T18:48:55.616Z,95343.82
2019-06-20T18:51:24.768Z,95343.64
2019-06-20T18:54:00.799Z,95355.59
2019-06-20T18:56:36.170Z,95363.12
2019-06-20T18:59:05.284Z,95348.73
2019-06-20T19:01:41.225Z,95352.93
2019-06-20T19:04:17.442Z,95358.27
2019-06-20T19:06:53.807Z,95360.13
2019-06-20T19:09:30.105Z,95364.36
2019-06-20T19:12:06.580Z,95355.26
2019-06-20T19:14:54.679Z,95363.65
2019-06-20T19:17:23.927Z,95364.41
2019-06-20T19:20:00.354Z,95368.45
2019-06-20T19:22:29.503Z,95360.80
2019-06-20T19:24:58.676Z,95364.02
2019-06-20T19:27:45.629Z,95363.13
2019-06-20T19:30:06.542Z,95375.22
2019-06-20T19:32:42.193Z,95381.11
2019-06-20T19:35:18.419Z,95375.17
2019-06-20T19:37:54.628Z,95373.08
2019-06-20T19:40:33.757Z,95369.38
2019-06-20T19:43:02.896Z,95372.84
2019-06-20T19:45:38.882Z,95370.29
2019-06-20T19:48:14.565Z,95382.17
2019-06-20T19:50:51.321Z,95382.33
2019-06-20T19:53:20.431Z,95387.83
2019-06-20T19:55:56.688Z,95393.62
2019-06-20T19:58:25.938Z,95392.33
2019-06-20T20:00:55.086Z,95387.34
2019-06-20T20:03:31.066Z,95374.78
2019-06-20T20:06:00.214Z,95378.80
2019-06-20T20:08:36.542Z,95375.33
2019-06-20T20:11:05.765Z,95380.73
2019-06-20T20:13:34.888Z,95385.25
2019-06-20T20:16:10.450Z,95380.17
2019-06-20T20:18:52.837Z,95381.68
2019-06-20T20:21:22.025Z,95388.30
2019-06-20T20:23:51.134Z,95390.88
2019-06-20T20:26:27.075Z,95395.48
2019-06-20T20:28:56.321Z,95396.19
2019-06-20T20:31:32.642Z,95401.73
2019-06-20T20:34:01.836Z,95408.90
2019-06-20T20:36:37.438Z,95412.69
2019-06-20T20:39:07.562Z,95411.95
2019-06-20T20:41:44.203Z,95410.56
2019-06-20T20:44:19.979Z,95407.44
2019-06-20T20:46:55.320Z,95408.56
2019-06-20T20:49:31.246Z,95413.68
2019-06-20T20:52:00.978Z,95415.75
2019-06-20T20:54:37.686Z,95421.39
2019-06-20T20:57:07.277Z,95420.58
2019-06-20T20:59:42.752Z,95428.87
2019-06-20T21:02:11.908Z,95434.34
2019-06-20T21:04:47.940Z,95440.73
2019-06-20T21:07:17.066Z,95439.75
2019-06-20T21:09:54.021Z,95437.89
2019-06-20T21:12:30.312Z,95439.93
2019-06-20T21:15:06.482Z,95440.63
2019-06-20T21:17:42.199Z,95445.45
2019-06-20T21:20:17.296Z,95450.42
2019-06-20T21:22:46.385Z,95450.42
2019-06-20T21:25:22.058Z,95457.45
2019-06-20T21:27:51.317Z,95464.16
2019-06-20T21:30:27.672Z,95462.18
2019-06-20T21:32:57.021Z,95464.91
2019-06-20T21:35:32.805Z,95469.79
2019-06-20T21:38:00.943Z,95473.95
2019-06-20T21:40:36.294Z,95471.46
2019-06-20T21:43:05.507Z,95480.52
2019-06-20T21:45:40.832Z,95474.09
2019-06-20T21:48:16.396Z,95470.67
2019-06-20T21:50:51.949Z,95473.02
2019-06-20T21:53:27.383Z,95475.91
2019-06-20T21:55:56.689Z,95470.30
2019-06-20T21:58:32.645Z,95474.33
2019-06-20T22:01:03.119Z,95472.67
2019-06-20T22:03:39.156Z,95470.86
2019-06-20T22:06:23.760Z,95473.84
2019-06-20T22:08:52.854Z,95469.30
2019-06-20T22:11:22.101Z,95472.54
2019-06-20T22:13:58.442Z,95469.81
2019-06-20T22:16:34.410Z,95467.08
2019-06-20T22:19:16.499Z,95474.02
2019-06-20T22:21:45.663Z,95474.36
2019-06-20T22:24:21.141Z,95473.66
2019-06-20T22:26:50.296Z,95478.12
2019-06-20T22:29:26.196Z,95480.65
2019-06-20T22:32:01.838Z,95479.53
2019-06-20T22:34:31.436Z,95484.24
2019-06-20T22:37:07.514Z,95489.45
2019-06-20T22:39:36.720Z,95493.98
2019-06-20T22:42:12.480Z,95493.34
2019-06-20T22:44:47.248Z,95486.91
2019-06-20T22:47:22.624Z,95490.80
2019-06-20T22:49:58.703Z,95488.68
2019-06-20T22:52:34.582Z,95487.67
2019-06-20T22:55:11.087Z,95491.01
2019-06-20T22:57:40.605Z,95486.74
2019-06-20T23:00:20.256Z,95483.46
2019-06-20T23:02:56.505Z,95490.70
2019-06-20T23:05:28.468Z,95469.72
2019-06-20T23:08:05.117Z,95490.67
2019-06-20T23:10:34.532Z,95516.42
2019-06-20T23:13:11.413Z,95491.36
2019-06-20T23:15:41.028Z,95472.25
2019-06-20T23:18:23.498Z,95489.09
2019-06-20T23:21:04.252Z,95487.87
2019-06-20T23:23:30.464Z,95484.94
2019-06-20T23:26:01.277Z,95488.42
2019-06-20T23:28:36.778Z,95502.08
2019-06-20T23:31:12.426Z,95504.47
2019-06-20T23:33:48.357Z,95497.33
2019-06-20T23:36:17.531Z,95501.77
2019-06-20T23:38:53.681Z,95502.48
2019-06-20T23:41:22.853Z,95499.65
2019-06-20T23:43:51.961Z,95495.75
2019-06-20T23:46:28.298Z,95485.86
2019-06-20T23:48:57.462Z,95483.27
2019-06-20T23:51:34.751Z,95457.50
2019-06-20T23:54:04.233Z,95457.50
2019-06-20T23:56:39.816Z,95458.92
2019-06-20T23:59:08.977Z,95476.70
